sensor_id;sensor_type;location;lat;lon;timestamp;temperature;humidity
44229;DHT22;29904;51.058;5.378;2024-02-28T00:01:29;0.50;99.90
44229;DHT22;29904;51.058;5.378;2024-02-28T00:03:55;0.60;99.90
44229;DHT22;29904;51.058;5.378;2024-02-28T00:06:21;0.60;99.90
44229;DHT22;29904;51.058;5.378;2024-02-28T00:08:48;0.70;99.90
44229;DHT22;29904;51.058;5.378;2024-02-28T00:11:16;0.70;99.90
44229;DHT22;29904;51.058;5.378;2024-02-28T00:13:41;0.80;99.90
44229;DHT22;29904;51.058;5.378;2024-02-28T00:16:11;0.90;99.90
44229;DHT22;29904;51.058;5.378;2024-02-28T00:18:37;0.90;99.90
44229;DHT22;29904;51.058;5.378;2024-02-28T00:21:02;1.00;99.90
44229;DHT22;29904;51.058;5.378;2024-02-28T00:23:29;1.10;99.90
44229;DHT22;29904;51.058;5.378;2024-02-28T00:25:54;1.10;99.90
44229;DHT22;29904;51.058;5.378;2024-02-28T00:28:20;1.20;99.90
44229;DHT22;29904;51.058;5.378;2024-02-28T00:30:46;1.20;99.90
44229;DHT22;29904;51.058;5.378;2024-02-28T00:33:12;1.30;99.90
44229;DHT22;29904;51.058;5.378;2024-02-28T00:35:39;1.30;99.90
44229;DHT22;29904;51.058;5.378;2024-02-28T00:38:05;1.30;99.90
44229;DHT22;29904;51.058;5.378;2024-02-28T00:40:30;1.40;99.90
44229;DHT22;29904;51.058;5.378;2024-02-28T00:42:56;1.40;99.90
44229;DHT22;29904;51.058;5.378;2024-02-28T00:45:24;1.50;99.90
44229;DHT22;29904;51.058;5.378;2024-02-28T00:47:49;1.50;99.90
44229;DHT22;29904;51.058;5.378;2024-02-28T00:50:15;1.50;99.90
44229;DHT22;29904;51.058;5.378;2024-02-28T00:52:42;1.50;99.90
44229;DHT22;29904;51.058;5.378;2024-02-28T00:55:08;1.50;99.90
44229;DHT22;29904;51.058;5.378;2024-02-28T00:57:33;1.50;99.90
44229;DHT22;29904;51.058;5.378;2024-02-28T00:59:59;1.50;99.90
44229;DHT22;29904;51.058;5.378;2024-02-28T01:02:24;1.50;99.90
44229;DHT22;29904;51.058;5.378;2024-02-28T01:04:50;1.50;99.90
44229;DHT22;29904;51.058;5.378;2024-02-28T01:07:18;1.50;99.90
44229;DHT22;29904;51.058;5.378;2024-02-28T01:09:43;1.50;99.90
44229;DHT22;29904;51.058;5.378;2024-02-28T01:12:09;1.40;99.90
44229;DHT22;29904;51.058;5.378;2024-02-28T01:14:37;1.30;99.90
44229;DHT22;29904;51.058;5.378;2024-02-28T01:17:02;1.40;99.90
44229;DHT22;29904;51.058;5.378;2024-02-28T01:19:28;1.30;99.90
44229;DHT22;29904;51.058;5.378;2024-02-28T01:21:53;1.30;99.90
44229;DHT22;29904;51.058;5.378;2024-02-28T01:24:19;1.40;99.90
44229;DHT22;29904;51.058;5.378;2024-02-28T01:26:44;1.30;99.90
44229;DHT22;29904;51.058;5.378;2024-02-28T01:29:10;1.30;99.90
44229;DHT22;29904;51.058;5.378;2024-02-28T01:31:36;1.30;99.90
44229;DHT22;29904;51.058;5.378;2024-02-28T01:34:01;1.30;99.90
44229;DHT22;29904;51.058;5.378;2024-02-28T01:36:27;1.20;99.90
44229;DHT22;29904;51.058;5.378;2024-02-28T01:38:54;1.20;99.90
44229;DHT22;29904;51.058;5.378;2024-02-28T01:41:20;1.20;99.90
44229;DHT22;29904;51.058;5.378;2024-02-28T01:43:46;1.20;99.90
44229;DHT22;29904;51.058;5.378;2024-02-28T01:46:20;1.20;99.90
44229;DHT22;29904;51.058;5.378;2024-02-28T01:48:47;1.20;99.90
44229;DHT22;29904;51.058;5.378;2024-02-28T01:51:13;1.20;99.90
44229;DHT22;29904;51.058;5.378;2024-02-28T01:53:38;1.20;99.90
44229;DHT22;29904;51.058;5.378;2024-02-28T01:56:04;1.20;99.90
44229;DHT22;29904;51.058;5.378;2024-02-28T01:58:29;1.20;99.90
44229;DHT22;29904;51.058;5.378;2024-02-28T02:00:55;1.20;99.90
44229;DHT22;29904;51.058;5.378;2024-02-28T02:03:21;1.20;99.90
44229;DHT22;29904;51.058;5.378;2024-02-28T02:05:47;1.20;99.90
44229;DHT22;29904;51.058;5.378;2024-02-28T02:08:14;1.20;99.90
44229;DHT22;29904;51.058;5.378;2024-02-28T02:10:41;1.20;99.90
44229;DHT22;29904;51.058;5.378;2024-02-28T02:13:08;1.30;99.90
44229;DHT22;29904;51.058;5.378;2024-02-28T02:15:33;1.20;99.90
44229;DHT22;29904;51.058;5.378;2024-02-28T02:17:59;1.20;99.90
44229;DHT22;29904;51.058;5.378;2024-02-28T02:20:25;1.20;99.90
44229;DHT22;29904;51.058;5.378;2024-02-28T02:22:51;1.20;99.90
44229;DHT22;29904;51.058;5.378;2024-02-28T02:25:17;1.20;99.90
44229;DHT22;29904;51.058;5.378;2024-02-28T02:27:45;1.20;99.90
44229;DHT22;29904;51.058;5.378;2024-02-28T02:30:11;1.20;99.90
44229;DHT22;29904;51.058;5.378;2024-02-28T02:32:36;1.20;99.90
44229;DHT22;29904;51.058;5.378;2024-02-28T02:35:04;1.20;99.90
44229;DHT22;29904;51.058;5.378;2024-02-28T02:37:29;1.10;99.90
44229;DHT22;29904;51.058;5.378;2024-02-28T02:39:55;1.10;99.90
44229;DHT22;29904;51.058;5.378;2024-02-28T02:42:21;1.10;99.90
44229;DHT22;29904;51.058;5.378;2024-02-28T02:44:46;1.10;99.90
44229;DHT22;29904;51.058;5.378;2024-02-28T02:47:12;1.00;99.90
44229;DHT22;29904;51.058;5.378;2024-02-28T02:49:37;1.00;99.90
44229;DHT22;29904;51.058;5.378;2024-02-28T02:52:03;1.00;99.90
44229;DHT22;29904;51.058;5.378;2024-02-28T02:54:29;1.00;99.90
44229;DHT22;29904;51.058;5.378;2024-02-28T02:56:56;0.90;99.90
44229;DHT22;29904;51.058;5.378;2024-02-28T02:59:21;0.90;99.90
44229;DHT22;29904;51.058;5.378;2024-02-28T03:01:48;0.90;99.90
44229;DHT22;29904;51.058;5.378;2024-02-28T03:04:15;0.90;99.90
44229;DHT22;29904;51.058;5.378;2024-02-28T03:06:40;1.00;99.90
44229;DHT22;29904;51.058;5.378;2024-02-28T03:09:06;1.00;99.90
44229;DHT22;29904;51.058;5.378;2024-02-28T03:11:34;1.00;99.90
44229;DHT22;29904;51.058;5.378;2024-02-28T03:14:01;0.90;99.90
44229;DHT22;29904;51.058;5.378;2024-02-28T03:16:27;0.90;99.90
44229;DHT22;29904;51.058;5.378;2024-02-28T03:18:54;0.90;99.90
44229;DHT22;29904;51.058;5.378;2024-02-28T03:21:20;0.90;99.90
44229;DHT22;29904;51.058;5.378;2024-02-28T03:23:46;0.90;99.90
44229;DHT22;29904;51.058;5.378;2024-02-28T03:26:12;0.90;99.90
44229;DHT22;29904;51.058;5.378;2024-02-28T03:28:39;0.90;99.90
44229;DHT22;29904;51.058;5.378;2024-02-28T03:31:05;0.90;99.90
44229;DHT22;29904;51.058;5.378;2024-02-28T03:33:31;0.90;99.90
44229;DHT22;29904;51.058;5.378;2024-02-28T03:35:58;0.80;99.90
44229;DHT22;29904;51.058;5.378;2024-02-28T03:38:23;0.80;99.90
44229;DHT22;29904;51.058;5.378;2024-02-28T03:40:49;0.80;99.90
44229;DHT22;29904;51.058;5.378;2024-02-28T03:43:16;0.80;99.90
44229;DHT22;29904;51.058;5.378;2024-02-28T03:45:44;0.80;99.90
44229;DHT22;29904;51.058;5.378;2024-02-28T03:48:10;0.80;99.90
44229;DHT22;29904;51.058;5.378;2024-02-28T03:50:35;0.80;99.90
44229;DHT22;29904;51.058;5.378;2024-02-28T03:53:03;0.80;99.90
44229;DHT22;29904;51.058;5.378;2024-02-28T03:55:29;0.70;99.90
44229;DHT22;29904;51.058;5.378;2024-02-28T03:57:55;0.70;99.90
44229;DHT22;29904;51.058;5.378;2024-02-28T04:00:21;0.70;99.90
44229;DHT22;29904;51.058;5.378;2024-02-28T04:02:47;0.70;99.90
44229;DHT22;29904;51.058;5.378;2024-02-28T04:05:12;0.70;99.90
44229;DHT22;29904;51.058;5.378;2024-02-28T04:07:38;0.60;99.90
44229;DHT22;29904;51.058;5.378;2024-02-28T04:10:04;0.70;99.90
44229;DHT22;29904;51.058;5.378;2024-02-28T04:12:30;0.70;99.90
44229;DHT22;29904;51.058;5.378;2024-02-28T04:14:56;0.70;99.90
44229;DHT22;29904;51.058;5.378;2024-02-28T04:17:21;0.70;99.90
44229;DHT22;29904;51.058;5.378;2024-02-28T04:19:47;0.70;99.90
44229;DHT22;29904;51.058;5.378;2024-02-28T04:22:12;0.60;99.90
44229;DHT22;29904;51.058;5.378;2024-02-28T04:24:38;0.60;99.90
44229;DHT22;29904;51.058;5.378;2024-02-28T04:27:04;0.60;99.90
44229;DHT22;29904;51.058;5.378;2024-02-28T04:29:31;0.60;99.90
44229;DHT22;29904;51.058;5.378;2024-02-28T04:31:57;0.60;99.90
44229;DHT22;29904;51.058;5.378;2024-02-28T04:34:22;0.50;99.90
44229;DHT22;29904;51.058;5.378;2024-02-28T04:36:50;0.60;99.90
44229;DHT22;29904;51.058;5.378;2024-02-28T04:39:15;0.60;99.90
44229;DHT22;29904;51.058;5.378;2024-02-28T04:41:41;0.50;99.90
44229;DHT22;29904;51.058;5.378;2024-02-28T04:44:06;0.50;99.90
44229;DHT22;29904;51.058;5.378;2024-02-28T04:46:33;0.50;99.90
44229;DHT22;29904;51.058;5.378;2024-02-28T04:48:59;0.50;99.90
44229;DHT22;29904;51.058;5.378;2024-02-28T04:51:25;0.50;99.90
44229;DHT22;29904;51.058;5.378;2024-02-28T04:53:50;0.50;99.90
44229;DHT22;29904;51.058;5.378;2024-02-28T04:56:16;0.50;99.90
44229;DHT22;29904;51.058;5.378;2024-02-28T04:58:41;0.50;99.90
44229;DHT22;29904;51.058;5.378;2024-02-28T05:01:07;0.50;99.90
44229;DHT22;29904;51.058;5.378;2024-02-28T05:03:33;0.50;99.90
44229;DHT22;29904;51.058;5.378;2024-02-28T05:05:58;0.50;99.90
44229;DHT22;29904;51.058;5.378;2024-02-28T05:08:26;0.50;99.90
44229;DHT22;29904;51.058;5.378;2024-02-28T05:10:52;0.50;99.90
44229;DHT22;29904;51.058;5.378;2024-02-28T05:13:18;0.50;99.90
44229;DHT22;29904;51.058;5.378;2024-02-28T05:15:47;0.50;99.90
44229;DHT22;29904;51.058;5.378;2024-02-28T05:18:12;0.50;99.90
44229;DHT22;29904;51.058;5.378;2024-02-28T05:20:38;0.50;99.90
44229;DHT22;29904;51.058;5.378;2024-02-28T05:23:05;0.40;99.90
44229;DHT22;29904;51.058;5.378;2024-02-28T05:25:31;0.50;99.90
44229;DHT22;29904;51.058;5.378;2024-02-28T05:27:57;0.50;99.90
44229;DHT22;29904;51.058;5.378;2024-02-28T05:30:24;0.50;99.90
44229;DHT22;29904;51.058;5.378;2024-02-28T05:32:50;0.40;99.90
44229;DHT22;29904;51.058;5.378;2024-02-28T05:35:15;0.40;99.90
44229;DHT22;29904;51.058;5.378;2024-02-28T05:37:41;0.50;99.90
44229;DHT22;29904;51.058;5.378;2024-02-28T05:40:07;0.40;99.90
44229;DHT22;29904;51.058;5.378;2024-02-28T05:42:33;0.50;99.90
44229;DHT22;29904;51.058;5.378;2024-02-28T05:44:58;0.40;99.90
44229;DHT22;29904;51.058;5.378;2024-02-28T05:47:25;0.40;99.90
44229;DHT22;29904;51.058;5.378;2024-02-28T05:49:51;0.50;99.90
44229;DHT22;29904;51.058;5.378;2024-02-28T05:52:16;0.50;99.90
44229;DHT22;29904;51.058;5.378;2024-02-28T05:54:42;0.40;99.90
44229;DHT22;29904;51.058;5.378;2024-02-28T05:57:08;0.40;99.90
44229;DHT22;29904;51.058;5.378;2024-02-28T05:59:33;0.40;99.90
44229;DHT22;29904;51.058;5.378;2024-02-28T06:01:59;0.50;99.90
44229;DHT22;29904;51.058;5.378;2024-02-28T06:04:25;0.40;99.90
44229;DHT22;29904;51.058;5.378;2024-02-28T06:06:50;0.40;99.90
44229;DHT22;29904;51.058;5.378;2024-02-28T06:09:17;0.40;99.90
44229;DHT22;29904;51.058;5.378;2024-02-28T06:11:43;0.40;99.90
44229;DHT22;29904;51.058;5.378;2024-02-28T06:14:09;0.40;99.90
44229;DHT22;29904;51.058;5.378;2024-02-28T06:16:34;0.40;99.90
44229;DHT22;29904;51.058;5.378;2024-02-28T06:19:00;0.40;99.90
44229;DHT22;29904;51.058;5.378;2024-02-28T06:21:25;0.40;99.90
44229;DHT22;29904;51.058;5.378;2024-02-28T06:23:51;0.40;99.90
44229;DHT22;29904;51.058;5.378;2024-02-28T06:26:17;0.40;99.90
44229;DHT22;29904;51.058;5.378;2024-02-28T06:28:43;0.40;99.90
44229;DHT22;29904;51.058;5.378;2024-02-28T06:31:11;0.40;99.90
44229;DHT22;29904;51.058;5.378;2024-02-28T06:33:37;0.40;99.90
44229;DHT22;29904;51.058;5.378;2024-02-28T06:36:02;0.30;99.90
44229;DHT22;29904;51.058;5.378;2024-02-28T06:38:28;0.30;99.90
44229;DHT22;29904;51.058;5.378;2024-02-28T06:40:54;0.30;99.90
44229;DHT22;29904;51.058;5.378;2024-02-28T06:43:19;0.40;99.90
44229;DHT22;29904;51.058;5.378;2024-02-28T06:45:45;0.40;99.90
44229;DHT22;29904;51.058;5.378;2024-02-28T06:48:11;0.40;99.90
44229;DHT22;29904;51.058;5.378;2024-02-28T06:50:36;0.30;99.90
44229;DHT22;29904;51.058;5.378;2024-02-28T06:53:02;0.30;99.90
44229;DHT22;29904;51.058;5.378;2024-02-28T06:55:27;0.40;99.90
44229;DHT22;29904;51.058;5.378;2024-02-28T06:57:53;0.40;99.90
44229;DHT22;29904;51.058;5.378;2024-02-28T07:00:19;0.40;99.90
44229;DHT22;29904;51.058;5.378;2024-02-28T07:02:44;0.50;99.90
44229;DHT22;29904;51.058;5.378;2024-02-28T07:05:10;0.50;99.90
44229;DHT22;29904;51.058;5.378;2024-02-28T07:07:36;0.60;99.90
44229;DHT22;29904;51.058;5.378;2024-02-28T07:10:05;0.50;99.90
44229;DHT22;29904;51.058;5.378;2024-02-28T07:12:30;0.60;99.90
44229;DHT22;29904;51.058;5.378;2024-02-28T07:14:56;0.60;99.90
44229;DHT22;29904;51.058;5.378;2024-02-28T07:17:22;0.70;99.90
44229;DHT22;29904;51.058;5.378;2024-02-28T07:19:49;0.70;99.90
44229;DHT22;29904;51.058;5.378;2024-02-28T07:22:15;0.80;99.90
44229;DHT22;29904;51.058;5.378;2024-02-28T07:24:40;0.90;99.90
44229;DHT22;29904;51.058;5.378;2024-02-28T07:27:06;0.90;99.90
44229;DHT22;29904;51.058;5.378;2024-02-28T07:29:32;1.00;99.90
44229;DHT22;29904;51.058;5.378;2024-02-28T07:31:58;1.00;99.90
44229;DHT22;29904;51.058;5.378;2024-02-28T07:34:24;1.00;99.90
44229;DHT22;29904;51.058;5.378;2024-02-28T07:36:50;1.00;99.90
44229;DHT22;29904;51.058;5.378;2024-02-28T07:39:15;1.10;99.90
44229;DHT22;29904;51.058;5.378;2024-02-28T07:41:43;1.10;99.90
44229;DHT22;29904;51.058;5.378;2024-02-28T07:44:08;1.10;99.90
44229;DHT22;29904;51.058;5.378;2024-02-28T07:46:34;1.10;99.90
44229;DHT22;29904;51.058;5.378;2024-02-28T07:49:02;1.20;99.90
44229;DHT22;29904;51.058;5.378;2024-02-28T07:51:28;1.20;99.90
44229;DHT22;29904;51.058;5.378;2024-02-28T07:53:53;1.30;99.90
44229;DHT22;29904;51.058;5.378;2024-02-28T07:56:20;1.40;99.90
44229;DHT22;29904;51.058;5.378;2024-02-28T07:58:45;1.40;99.90
44229;DHT22;29904;51.058;5.378;2024-02-28T08:01:11;1.50;99.90
44229;DHT22;29904;51.058;5.378;2024-02-28T08:03:37;1.50;99.90
44229;DHT22;29904;51.058;5.378;2024-02-28T08:06:04;1.70;99.90
44229;DHT22;29904;51.058;5.378;2024-02-28T08:08:30;1.80;99.90
44229;DHT22;29904;51.058;5.378;2024-02-28T08:10:55;1.80;99.90
44229;DHT22;29904;51.058;5.378;2024-02-28T08:13:23;1.90;99.90
44229;DHT22;29904;51.058;5.378;2024-02-28T08:15:50;1.90;99.90
44229;DHT22;29904;51.058;5.378;2024-02-28T08:18:15;2.00;99.90
44229;DHT22;29904;51.058;5.378;2024-02-28T08:20:43;2.10;99.90
44229;DHT22;29904;51.058;5.378;2024-02-28T08:23:08;2.30;99.90
44229;DHT22;29904;51.058;5.378;2024-02-28T08:25:34;2.50;99.90
44229;DHT22;29904;51.058;5.378;2024-02-28T08:27:59;2.50;99.90
44229;DHT22;29904;51.058;5.378;2024-02-28T08:30:28;2.50;99.90
44229;DHT22;29904;51.058;5.378;2024-02-28T08:32:54;2.60;99.90
44229;DHT22;29904;51.058;5.378;2024-02-28T08:35:19;2.60;99.90
44229;DHT22;29904;51.058;5.378;2024-02-28T08:37:48;2.70;99.90
44229;DHT22;29904;51.058;5.378;2024-02-28T08:40:14;2.80;99.90
44229;DHT22;29904;51.058;5.378;2024-02-28T08:42:40;2.70;99.90
44229;DHT22;29904;51.058;5.378;2024-02-28T08:45:07;2.90;99.90
44229;DHT22;29904;51.058;5.378;2024-02-28T08:47:34;3.00;99.90
44229;DHT22;29904;51.058;5.378;2024-02-28T08:50:00;3.10;99.90
44229;DHT22;29904;51.058;5.378;2024-02-28T08:52:25;3.30;99.90
44229;DHT22;29904;51.058;5.378;2024-02-28T08:54:51;3.40;99.90
44229;DHT22;29904;51.058;5.378;2024-02-28T08:57:19;3.50;99.90
44229;DHT22;29904;51.058;5.378;2024-02-28T08:59:45;3.60;99.90
44229;DHT22;29904;51.058;5.378;2024-02-28T09:02:13;3.70;99.90
44229;DHT22;29904;51.058;5.378;2024-02-28T09:04:38;3.80;99.90
44229;DHT22;29904;51.058;5.378;2024-02-28T09:07:04;3.90;99.90
44229;DHT22;29904;51.058;5.378;2024-02-28T09:09:30;4.00;99.90
44229;DHT22;29904;51.058;5.378;2024-02-28T09:11:59;4.10;99.90
44229;DHT22;29904;51.058;5.378;2024-02-28T09:14:25;4.10;99.90
44229;DHT22;29904;51.058;5.378;2024-02-28T09:16:50;4.20;99.90
44229;DHT22;29904;51.058;5.378;2024-02-28T09:19:16;4.30;99.90
44229;DHT22;29904;51.058;5.378;2024-02-28T09:21:43;4.50;99.90
44229;DHT22;29904;51.058;5.378;2024-02-28T09:24:09;4.60;99.90
44229;DHT22;29904;51.058;5.378;2024-02-28T09:26:38;4.70;99.90
44229;DHT22;29904;51.058;5.378;2024-02-28T09:29:03;4.90;99.90
44229;DHT22;29904;51.058;5.378;2024-02-28T09:31:29;5.00;99.90
44229;DHT22;29904;51.058;5.378;2024-02-28T09:33:55;5.20;99.90
44229;DHT22;29904;51.058;5.378;2024-02-28T09:36:23;5.20;99.90
44229;DHT22;29904;51.058;5.378;2024-02-28T09:38:51;5.40;99.90
44229;DHT22;29904;51.058;5.378;2024-02-28T09:41:16;5.50;99.90
44229;DHT22;29904;51.058;5.378;2024-02-28T09:43:42;5.60;99.90
44229;DHT22;29904;51.058;5.378;2024-02-28T09:46:10;5.80;99.90
44229;DHT22;29904;51.058;5.378;2024-02-28T09:48:38;6.10;99.90
44229;DHT22;29904;51.058;5.378;2024-02-28T09:51:05;6.10;99.90
44229;DHT22;29904;51.058;5.378;2024-02-28T09:53:31;6.20;99.90
44229;DHT22;29904;51.058;5.378;2024-02-28T09:55:58;6.20;99.90
44229;DHT22;29904;51.058;5.378;2024-02-28T09:58:24;6.30;99.90
44229;DHT22;29904;51.058;5.378;2024-02-28T10:00:50;6.60;99.90
44229;DHT22;29904;51.058;5.378;2024-02-28T10:03:18;6.60;99.90
44229;DHT22;29904;51.058;5.378;2024-02-28T10:05:45;6.70;99.90
44229;DHT22;29904;51.058;5.378;2024-02-28T10:08:11;7.00;99.90
44229;DHT22;29904;51.058;5.378;2024-02-28T10:10:37;7.10;99.90
44229;DHT22;29904;51.058;5.378;2024-02-28T10:13:03;7.10;99.90
44229;DHT22;29904;51.058;5.378;2024-02-28T10:15:30;7.00;99.90
44229;DHT22;29904;51.058;5.378;2024-02-28T10:17:55;7.10;99.90
44229;DHT22;29904;51.058;5.378;2024-02-28T10:20:21;7.20;99.90
44229;DHT22;29904;51.058;5.378;2024-02-28T10:22:47;7.40;99.90
44229;DHT22;29904;51.058;5.378;2024-02-28T10:25:13;7.70;99.90
44229;DHT22;29904;51.058;5.378;2024-02-28T10:27:38;7.80;99.90
44229;DHT22;29904;51.058;5.378;2024-02-28T10:30:05;7.80;99.90
44229;DHT22;29904;51.058;5.378;2024-02-28T10:32:33;7.70;99.90
44229;DHT22;29904;51.058;5.378;2024-02-28T10:35:02;7.60;99.90
44229;DHT22;29904;51.058;5.378;2024-02-28T10:37:28;7.60;99.90
44229;DHT22;29904;51.058;5.378;2024-02-28T10:39:56;7.60;99.90
44229;DHT22;29904;51.058;5.378;2024-02-28T10:42:22;7.70;99.90
44229;DHT22;29904;51.058;5.378;2024-02-28T10:44:49;7.70;99.90
44229;DHT22;29904;51.058;5.378;2024-02-28T10:47:17;7.80;99.90
44229;DHT22;29904;51.058;5.378;2024-02-28T10:49:43;8.00;99.90
44229;DHT22;29904;51.058;5.378;2024-02-28T10:52:09;8.10;99.90
44229;DHT22;29904;51.058;5.378;2024-02-28T10:54:36;8.00;99.90
44229;DHT22;29904;51.058;5.378;2024-02-28T10:57:03;8.00;99.90
44229;DHT22;29904;51.058;5.378;2024-02-28T10:59:31;8.10;99.90
44229;DHT22;29904;51.058;5.378;2024-02-28T11:01:57;8.20;99.90
44229;DHT22;29904;51.058;5.378;2024-02-28T11:04:23;8.00;99.90
44229;DHT22;29904;51.058;5.378;2024-02-28T11:06:49;8.00;99.90
44229;DHT22;29904;51.058;5.378;2024-02-28T11:09:23;8.10;99.90
44229;DHT22;29904;51.058;5.378;2024-02-28T11:11:49;8.00;99.90
44229;DHT22;29904;51.058;5.378;2024-02-28T11:14:16;8.00;99.90
44229;DHT22;29904;51.058;5.378;2024-02-28T11:16:42;8.10;99.90
44229;DHT22;29904;51.058;5.378;2024-02-28T11:19:20;8.20;99.90
44229;DHT22;29904;51.058;5.378;2024-02-28T11:21:55;8.40;99.90
44229;DHT22;29904;51.058;5.378;2024-02-28T11:24:23;8.40;99.90
44229;DHT22;29904;51.058;5.378;2024-02-28T11:26:52;8.50;99.90
44229;DHT22;29904;51.058;5.378;2024-02-28T11:29:22;8.50;99.90
44229;DHT22;29904;51.058;5.378;2024-02-28T11:31:48;8.70;99.90
44229;DHT22;29904;51.058;5.378;2024-02-28T11:34:14;8.70;99.90
44229;DHT22;29904;51.058;5.378;2024-02-28T11:36:40;8.80;99.90
44229;DHT22;29904;51.058;5.378;2024-02-28T11:39:06;8.80;99.90
44229;DHT22;29904;51.058;5.378;2024-02-28T11:41:32;8.80;99.90
44229;DHT22;29904;51.058;5.378;2024-02-28T11:43:57;8.90;99.90
44229;DHT22;29904;51.058;5.378;2024-02-28T11:46:26;9.00;99.90
44229;DHT22;29904;51.058;5.378;2024-02-28T11:48:52;9.10;99.90
44229;DHT22;29904;51.058;5.378;2024-02-28T11:51:17;9.10;99.90
44229;DHT22;29904;51.058;5.378;2024-02-28T11:53:43;9.20;99.90
44229;DHT22;29904;51.058;5.378;2024-02-28T11:56:10;9.40;99.90
44229;DHT22;29904;51.058;5.378;2024-02-28T11:58:36;9.50;99.90
44229;DHT22;29904;51.058;5.378;2024-02-28T12:01:03;9.70;99.90
44229;DHT22;29904;51.058;5.378;2024-02-28T12:03:30;9.80;99.90
44229;DHT22;29904;51.058;5.378;2024-02-28T12:05:55;9.60;99.90
44229;DHT22;29904;51.058;5.378;2024-02-28T12:08:21;9.50;99.90
44229;DHT22;29904;51.058;5.378;2024-02-28T12:10:47;9.60;99.90
44229;DHT22;29904;51.058;5.378;2024-02-28T12:13:19;9.70;99.90
44229;DHT22;29904;51.058;5.378;2024-02-28T12:15:46;9.70;99.90
44229;DHT22;29904;51.058;5.378;2024-02-28T12:18:16;9.60;99.90
44229;DHT22;29904;51.058;5.378;2024-02-28T12:20:42;9.50;99.90
44229;DHT22;29904;51.058;5.378;2024-02-28T12:23:10;9.70;99.90
44229;DHT22;29904;51.058;5.378;2024-02-28T12:25:38;9.90;99.90
44229;DHT22;29904;51.058;5.378;2024-02-28T12:28:04;10.00;99.90
44229;DHT22;29904;51.058;5.378;2024-02-28T12:30:38;10.00;99.90
44229;DHT22;29904;51.058;5.378;2024-02-28T12:33:04;10.00;99.90
44229;DHT22;29904;51.058;5.378;2024-02-28T12:35:30;10.00;99.90
44229;DHT22;29904;51.058;5.378;2024-02-28T12:37:56;9.90;99.90
44229;DHT22;29904;51.058;5.378;2024-02-28T12:40:24;9.90;99.90
44229;DHT22;29904;51.058;5.378;2024-02-28T12:42:50;9.80;99.90
44229;DHT22;29904;51.058;5.378;2024-02-28T12:45:16;10.00;99.90
44229;DHT22;29904;51.058;5.378;2024-02-28T12:47:41;10.00;99.90
44229;DHT22;29904;51.058;5.378;2024-02-28T12:50:07;10.10;99.90
44229;DHT22;29904;51.058;5.378;2024-02-28T12:52:34;10.20;99.90
44229;DHT22;29904;51.058;5.378;2024-02-28T12:55:01;10.30;99.90
44229;DHT22;29904;51.058;5.378;2024-02-28T12:57:27;10.40;99.90
44229;DHT22;29904;51.058;5.378;2024-02-28T12:59:53;10.50;99.90
44229;DHT22;29904;51.058;5.378;2024-02-28T13:02:19;10.60;99.90
44229;DHT22;29904;51.058;5.378;2024-02-28T13:04:45;10.70;99.90
44229;DHT22;29904;51.058;5.378;2024-02-28T13:07:10;10.60;99.90
44229;DHT22;29904;51.058;5.378;2024-02-28T13:09:37;10.60;99.90
44229;DHT22;29904;51.058;5.378;2024-02-28T13:12:03;10.70;99.90
44229;DHT22;29904;51.058;5.378;2024-02-28T13:14:29;10.80;99.90
44229;DHT22;29904;51.058;5.378;2024-02-28T13:16:58;10.90;99.90
44229;DHT22;29904;51.058;5.378;2024-02-28T13:19:23;10.90;99.90
44229;DHT22;29904;51.058;5.378;2024-02-28T13:21:49;10.90;99.90
44229;DHT22;29904;51.058;5.378;2024-02-28T13:24:15;11.20;99.90
44229;DHT22;29904;51.058;5.378;2024-02-28T13:26:41;11.40;99.90
44229;DHT22;29904;51.058;5.378;2024-02-28T13:29:07;11.40;99.90
44229;DHT22;29904;51.058;5.378;2024-02-28T13:31:35;11.30;99.90
44229;DHT22;29904;51.058;5.378;2024-02-28T13:34:00;11.20;99.90
44229;DHT22;29904;51.058;5.378;2024-02-28T13:36:28;11.20;99.90
44229;DHT22;29904;51.058;5.378;2024-02-28T13:38:55;11.20;99.90
44229;DHT22;29904;51.058;5.378;2024-02-28T13:41:21;11.30;99.90
44229;DHT22;29904;51.058;5.378;2024-02-28T13:43:46;11.40;99.90
44229;DHT22;29904;51.058;5.378;2024-02-28T13:46:14;11.50;99.90
44229;DHT22;29904;51.058;5.378;2024-02-28T13:48:40;11.50;99.90
44229;DHT22;29904;51.058;5.378;2024-02-28T13:51:05;11.50;99.90
44229;DHT22;29904;51.058;5.378;2024-02-28T13:53:31;11.40;99.90
44229;DHT22;29904;51.058;5.378;2024-02-28T13:55:57;11.30;99.90
44229;DHT22;29904;51.058;5.378;2024-02-28T13:58:22;11.30;99.90
44229;DHT22;29904;51.058;5.378;2024-02-28T14:00:48;11.30;99.90
44229;DHT22;29904;51.058;5.378;2024-02-28T14:03:13;11.20;99.90
44229;DHT22;29904;51.058;5.378;2024-02-28T14:05:39;11.10;99.90
44229;DHT22;29904;51.058;5.378;2024-02-28T14:08:05;11.00;99.90
44229;DHT22;29904;51.058;5.378;2024-02-28T14:10:33;10.90;99.90
44229;DHT22;29904;51.058;5.378;2024-02-28T14:12:59;10.90;99.90
44229;DHT22;29904;51.058;5.378;2024-02-28T14:15:25;11.00;99.90
44229;DHT22;29904;51.058;5.378;2024-02-28T14:17:50;11.00;99.90
44229;DHT22;29904;51.058;5.378;2024-02-28T14:20:17;11.10;99.90
44229;DHT22;29904;51.058;5.378;2024-02-28T14:22:42;11.10;99.90
44229;DHT22;29904;51.058;5.378;2024-02-28T14:25:11;11.10;99.90
44229;DHT22;29904;51.058;5.378;2024-02-28T14:27:39;11.00;99.90
44229;DHT22;29904;51.058;5.378;2024-02-28T14:30:06;11.00;99.90
44229;DHT22;29904;51.058;5.378;2024-02-28T14:32:34;10.90;99.90
44229;DHT22;29904;51.058;5.378;2024-02-28T14:35:02;10.90;99.90
44229;DHT22;29904;51.058;5.378;2024-02-28T14:37:28;10.70;99.90
44229;DHT22;29904;51.058;5.378;2024-02-28T14:39:54;10.70;99.90
44229;DHT22;29904;51.058;5.378;2024-02-28T14:42:22;10.70;99.90
44229;DHT22;29904;51.058;5.378;2024-02-28T14:44:47;10.60;99.90
44229;DHT22;29904;51.058;5.378;2024-02-28T14:47:13;10.50;99.90
44229;DHT22;29904;51.058;5.378;2024-02-28T14:49:38;10.50;99.90
44229;DHT22;29904;51.058;5.378;2024-02-28T14:52:04;10.50;99.90
44229;DHT22;29904;51.058;5.378;2024-02-28T14:54:29;10.60;99.90
44229;DHT22;29904;51.058;5.378;2024-02-28T14:56:55;10.50;99.90
44229;DHT22;29904;51.058;5.378;2024-02-28T14:59:21;10.50;99.90
44229;DHT22;29904;51.058;5.378;2024-02-28T15:01:49;10.50;99.90
44229;DHT22;29904;51.058;5.378;2024-02-28T15:04:16;10.50;99.90
44229;DHT22;29904;51.058;5.378;2024-02-28T15:06:42;10.60;99.90
44229;DHT22;29904;51.058;5.378;2024-02-28T15:09:07;10.60;99.90
44229;DHT22;29904;51.058;5.378;2024-02-28T15:11:35;10.60;99.90
44229;DHT22;29904;51.058;5.378;2024-02-28T15:14:01;10.70;99.90
44229;DHT22;29904;51.058;5.378;2024-02-28T15:16:28;10.70;99.90
44229;DHT22;29904;51.058;5.378;2024-02-28T15:18:53;10.80;99.90
44229;DHT22;29904;51.058;5.378;2024-02-28T15:21:20;10.80;99.90
44229;DHT22;29904;51.058;5.378;2024-02-28T15:23:48;10.80;99.90
44229;DHT22;29904;51.058;5.378;2024-02-28T15:26:14;10.80;99.90
44229;DHT22;29904;51.058;5.378;2024-02-28T15:28:41;10.70;99.90
44229;DHT22;29904;51.058;5.378;2024-02-28T15:31:07;10.90;99.90
44229;DHT22;29904;51.058;5.378;2024-02-28T15:33:33;11.10;99.90
44229;DHT22;29904;51.058;5.378;2024-02-28T15:35:58;11.20;99.90